Time;durP1;ratioP1;P1;durP2;ratioP2;P2;SDS_P1;SDS_P2;PMS_P1;PMS_P2;Temp;Humidity;BMP_temperature;BMP_pressure;BME280_temperature;BME280_humidity;BME280_pressure;Samples;Min_cycle;Max_cycle;Signal;HPM_P1;HPM_P2
2024/03/30 00:00:12;;;;;;;;;;;;;;;17.91;45.17;97940.53;10413820;28;887;-70
2024/03/30 00:05:08;;;;;;;;;;;;;;;17.90;45.07;97953.84;10412954;28;1893;-70
2024/03/30 00:10:04;;;;;;;;;;;;;;;17.89;44.91;97941.59;10412109;28;799;-70
2024/03/30 00:14:59;;;;;;;;;;;;;;;17.85;45.06;97943.63;10412615;28;918;-70
2024/03/30 00:19:55;;;;;;;;;;;;;;;17.85;44.90;97930.47;10412395;28;798;-70
2024/03/30 00:24:51;;;;;;;;;;;;;;;17.84;45.02;97925.28;10411596;28;1902;-70
2024/03/30 00:29:47;;;;;;;;;;;;;;;17.83;45.15;97918.34;10412034;28;846;-70
2024/03/30 00:34:43;;;;;;;;;;;;;;;17.81;45.22;97912.34;10411246;28;1083;-71
2024/03/30 00:39:39;;;;;;;;;;;;;;;17.80;45.12;97915.94;10412036;28;937;-70
2024/03/30 00:44:35;;;;;;;;;;;;;;;17.78;45.22;97908.09;10410842;28;900;-70
2024/03/30 00:49:30;;;;;;;;;;;;;;;17.76;45.13;97899.44;10410571;28;1952;-70
2024/03/30 00:54:26;;;;;;;;;;;;;;;17.75;45.22;97893.34;10411183;28;841;-70
2024/03/30 00:59:22;;;;;;;;;;;;;;;17.73;45.12;97882.06;10410248;28;1202;-70
2024/03/30 01:04:18;;;;;;;;;;;;;;;17.72;45.13;97880.41;10411243;28;826;-70
2024/03/30 01:09:14;;;;;;;;;;;;;;;17.71;45.17;97884.00;10410313;28;1969;-70
2024/03/30 01:14:10;;;;;;;;;;;;;;;17.70;45.24;97871.75;10410256;28;846;-70
2024/03/30 01:19:06;;;;;;;;;;;;;;;17.68;45.34;97868.41;10410511;28;931;-70
2024/03/30 01:24:02;;;;;;;;;;;;;;;17.66;45.24;97865.03;10410269;28;1036;-70
2024/03/30 01:28:58;;;;;;;;;;;;;;;17.66;45.13;97869.47;10409771;28;1914;-70
2024/03/30 01:33:53;;;;;;;;;;;;;;;17.64;45.39;97874.84;10410104;28;896;-70
2024/03/30 01:38:49;;;;;;;;;;;;;;;17.63;45.40;97862.66;10409356;28;881;-70
2024/03/30 01:43:46;;;;;;;;;;;;;;;17.61;45.16;97856.63;10409058;28;980;-70
2024/03/30 01:48:42;;;;;;;;;;;;;;;17.61;45.28;97840.84;10409405;28;1952;-70
2024/03/30 01:53:38;;;;;;;;;;;;;;;17.60;45.30;97836.50;10408751;28;952;-70
2024/03/30 01:58:33;;;;;;;;;;;;;;;17.58;45.17;97825.25;10408609;28;874;-70
2024/03/30 02:03:29;;;;;;;;;;;;;;;17.57;45.18;97820.09;10407873;28;913;-71
2024/03/30 02:08:25;;;;;;;;;;;;;;;17.55;45.32;97807.00;10408234;28;1943;-70
2024/03/30 02:13:21;;;;;;;;;;;;;;;17.55;45.29;97803.53;10408351;28;931;-70
2024/03/30 02:18:17;;;;;;;;;;;;;;;17.52;45.16;97797.53;10408765;28;873;-70
2024/03/30 02:23:13;;;;;;;;;;;;;;;17.52;45.33;97786.16;10408394;28;1015;-70
2024/03/30 02:28:08;;;;;;;;;;;;;;;17.51;45.21;97769.53;10407537;28;1980;-71
2024/03/30 02:33:04;;;;;;;;;;;;;;;17.50;45.36;97762.59;10407716;28;1019;-70
2024/03/30 02:38:00;;;;;;;;;;;;;;;17.49;45.36;97755.63;10408348;28;798;-70
2024/03/30 02:42:56;;;;;;;;;;;;;;;17.48;45.47;97747.84;10406832;28;925;-70
2024/03/30 02:47:52;;;;;;;;;;;;;;;17.47;45.25;97749.63;10408475;28;1971;-70
2024/03/30 02:52:48;;;;;;;;;;;;;;;17.45;45.31;97741.03;10417244;28;862;-70
2024/03/30 02:57:44;;;;;;;;;;;;;;;17.45;45.44;97738.38;10416295;28;885;-70
2024/03/30 03:02:39;;;;;;;;;;;;;;;17.43;45.27;97737.66;10415539;28;941;-70
2024/03/30 03:07:35;;;;;;;;;;;;;;;17.42;45.21;97740.38;10415176;28;1980;-70
2024/03/30 03:12:31;;;;;;;;;;;;;;;17.42;45.28;97735.13;10415372;28;814;-71
2024/03/30 03:17:27;;;;;;;;;;;;;;;17.41;45.53;97731.66;10415011;28;810;-70
2024/03/30 03:22:23;;;;;;;;;;;;;;;17.39;45.30;97723.00;10414155;28;912;-70
2024/03/30 03:27:19;;;;;;;;;;;;;;;17.38;45.27;97709.97;10414847;27;1913;-70
2024/03/30 03:32:15;;;;;;;;;;;;;;;17.38;45.38;97709.97;10414398;28;992;-71
2024/03/30 03:37:10;;;;;;;;;;;;;;;17.37;45.53;97698.63;10414150;28;1004;-70
2024/03/30 03:42:06;;;;;;;;;;;;;;;17.36;45.53;97698.72;10414128;28;929;-70
2024/03/30 03:47:02;;;;;;;;;;;;;;;17.34;45.41;97690.91;10413704;28;1967;-70
2024/03/30 03:52:00;;;;;;;;;;;;;;;17.33;45.38;97689.25;10413575;28;802;-70
2024/03/30 03:56:56;;;;;;;;;;;;;;;17.31;45.55;97678.81;10413344;28;794;-71
2024/03/30 04:01:52;;;;;;;;;;;;;;;17.31;45.49;97673.53;10412909;28;934;-71
2024/03/30 04:06:48;;;;;;;;;;;;;;;17.30;45.47;97671.88;10411668;28;1937;-70
2024/03/30 04:11:43;;;;;;;;;;;;;;;17.30;45.51;97666.63;10413171;28;822;-70
2024/03/30 04:16:39;;;;;;;;;;;;;;;17.28;45.35;97663.25;10413171;28;846;-71
2024/03/30 04:21:35;;;;;;;;;;;;;;;17.28;45.30;97662.41;10412317;28;782;-70
2024/03/30 04:26:31;;;;;;;;;;;;;;;17.26;45.34;97657.25;10412225;27;1918;-70
2024/03/30 04:31:27;;;;;;;;;;;;;;;17.26;45.42;97651.97;10412644;28;813;-70
2024/03/30 04:36:23;;;;;;;;;;;;;;;17.24;45.45;97651.28;10411206;28;919;-70
2024/03/30 04:41:19;;;;;;;;;;;;;;;17.23;45.41;97639.06;10411469;28;929;-70
2024/03/30 04:46:15;;;;;;;;;;;;;;;17.22;45.45;97640.03;10411419;28;1870;-70
2024/03/30 04:51:10;;;;;;;;;;;;;;;17.21;45.33;97646.25;10411862;28;890;-70
2024/03/30 04:56:07;;;;;;;;;;;;;;;17.20;45.42;97639.28;10411078;28;795;-70
2024/03/30 05:01:02;;;;;;;;;;;;;;;17.22;45.55;97636.56;10410912;28;949;-70
2024/03/30 05:05:58;;;;;;;;;;;;;;;17.22;45.51;97621.59;10410630;28;1894;-71
2024/03/30 05:10:54;;;;;;;;;;;;;;;17.23;45.51;97622.44;10411046;27;896;-71
2024/03/30 05:15:50;;;;;;;;;;;;;;;17.25;45.51;97631.06;10410801;28;806;-71
2024/03/30 05:20:49;;;;;;;;;;;;;;;17.27;45.49;97619.44;10409429;28;856;-71
2024/03/30 05:25:45;;;;;;;;;;;;;;;17.29;45.54;97617.56;10410599;28;1971;-71
2024/03/30 05:30:41;;;;;;;;;;;;;;;17.32;45.35;97611.22;10410541;28;850;-71
2024/03/30 05:35:37;;;;;;;;;;;;;;;17.34;45.40;97608.44;10408902;28;1016;-70
2024/03/30 05:40:33;;;;;;;;;;;;;;;17.37;45.56;97608.22;10409303;28;902;-70
2024/03/30 05:45:28;;;;;;;;;;;;;;;17.40;45.68;97600.09;10409104;28;1905;-71
2024/03/30 05:50:24;;;;;;;;;;;;;;;17.43;45.56;97613.03;10409540;28;893;-75
2024/03/30 05:55:20;;;;;;;;;;;;;;;17.45;45.61;97600.59;10408913;28;977;-71
2024/03/30 06:00:16;;;;;;;;;;;;;;;17.47;45.57;97609.19;10409425;28;868;-71
2024/03/30 06:05:12;;;;;;;;;;;;;;;17.50;45.69;97612.47;10407763;28;1949;-71
2024/03/30 06:10:08;;;;;;;;;;;;;;;17.52;45.81;97605.25;10408287;28;1561;-76
2024/03/30 06:15:04;;;;;;;;;;;;;;;17.56;45.66;97623.47;10408327;28;869;-71
2024/03/30 06:20:00;;;;;;;;;;;;;;;17.58;45.91;97624.19;10407461;28;946;-70
2024/03/30 06:24:56;;;;;;;;;;;;;;;17.61;45.92;97623.97;10407277;28;1905;-71
2024/03/30 06:29:52;;;;;;;;;;;;;;;17.63;45.86;97611.50;10407875;28;949;-71
2024/03/30 06:34:48;;;;;;;;;;;;;;;17.64;45.94;97614.03;10407686;28;863;-72
2024/03/30 06:44:58;;;;;;;;;;;;;;;17.68;45.88;97627.78;10407262;28;1893;-71
2024/03/30 06:49:54;;;;;;;;;;;;;;;17.70;45.98;97626.72;10408231;28;868;-71
2024/03/30 06:54:50;;;;;;;;;;;;;;;17.71;45.98;97624.91;10407339;28;1003;-71
2024/03/30 06:59:46;;;;;;;;;;;;;;;17.71;45.98;97624.91;10407257;28;876;-71
2024/03/30 07:04:42;;;;;;;;;;;;;;;17.72;45.84;97635.34;10407807;28;786;-71
2024/03/30 07:09:38;;;;;;;;;;;;;;;17.72;45.92;97632.72;10407037;28;1897;-71
2024/03/30 07:14:34;;;;;;;;;;;;;;;17.72;46.03;97634.53;10406014;28;835;-71
2024/03/30 07:19:29;;;;;;;;;;;;;;;17.71;45.92;97631.06;10407196;28;894;-71
2024/03/30 07:24:25;;;;;;;;;;;;;;;17.70;45.92;97634.63;10407185;28;1519;-70
2024/03/30 07:29:21;;;;;;;;;;;;;;;17.71;45.82;97638.97;10407273;28;1971;-71
2024/03/30 07:34:17;;;;;;;;;;;;;;;17.72;45.97;97631.88;10407405;28;842;-74
2024/03/30 07:39:13;;;;;;;;;;;;;;;17.72;45.73;97639.78;10413529;28;1004;-75
2024/03/30 07:44:10;;;;;;;;;;;;;;;17.72;45.88;97643.25;10414452;28;896;-70
2024/03/30 07:49:06;;;;;;;;;;;;;;;17.73;45.78;97650.19;10413845;28;1951;-71
2024/03/30 07:54:01;;;;;;;;;;;;;;;17.74;45.82;97657.16;10413501;28;786;-77
2024/03/30 07:58:58;;;;;;;;;;;;;;;17.75;45.98;97665.91;10413283;27;846;-71
2024/03/30 08:03:54;;;;;;;;;;;;;;;17.78;45.75;97670.09;10413720;28;894;-71
2024/03/30 08:08:50;;;;;;;;;;;;;;;17.78;45.97;97662.19;10412776;28;1890;-70
2024/03/30 08:13:46;;;;;;;;;;;;;;;17.79;45.92;97677.94;10412719;28;782;-71
2024/03/30 08:18:42;;;;;;;;;;;;;;;17.80;46.00;97682.22;10413303;28;886;-70
2024/03/30 08:23:38;;;;;;;;;;;;;;;17.82;45.96;97690.88;10412203;28;921;-71
2024/03/30 08:28:33;;;;;;;;;;;;;;;17.82;45.74;97688.25;10411640;28;1909;-71
2024/03/30 08:33:31;;;;;;;;;;;;;;;17.84;45.79;97702.13;10411395;27;867;-71
2024/03/30 08:38:26;;;;;;;;;;;;;;;17.86;45.91;97702.00;10411739;28;889;-70
2024/03/30 08:43:25;;;;;;;;;;;;;;;17.87;45.67;97706.34;10411624;28;1087;-70
2024/03/30 08:48:21;;;;;;;;;;;;;;;17.88;45.80;97708.00;10410907;28;1948;-71
2024/03/30 08:53:17;;;;;;;;;;;;;;;17.88;45.60;97703.56;10411857;28;857;-71
2024/03/30 08:58:13;;;;;;;;;;;;;;;17.90;45.57;97691.13;10411044;28;795;-70
2024/03/30 09:03:09;;;;;;;;;;;;;;;17.90;45.58;97687.66;10410826;28;798;-70
2024/03/30 09:08:05;;;;;;;;;;;;;;;17.93;45.77;97682.13;10411173;28;1890;-70
2024/03/30 09:13:00;;;;;;;;;;;;;;;17.92;45.50;97673.41;10411026;28;897;-70
2024/03/30 09:17:56;;;;;;;;;;;;;;;17.94;45.72;97686.44;10410344;28;988;-71
2024/03/30 09:22:52;;;;;;;;;;;;;;;17.95;45.65;97690.78;10410891;28;821;-70
2024/03/30 09:27:48;;;;;;;;;;;;;;;17.97;45.56;97683.56;10409394;28;1993;-77
2024/03/30 09:32:44;;;;;;;;;;;;;;;17.99;45.54;97701.91;10409816;28;1000;-71
2024/03/30 09:37:40;;;;;;;;;;;;;;;17.99;45.57;97696.66;10409380;28;886;-71
2024/03/30 09:42:36;;;;;;;;;;;;;;;17.99;45.50;97692.19;10409847;28;973;-71
2024/03/30 09:47:32;;;;;;;;;;;;;;;18.01;45.59;97692.94;10409539;28;1909;-71
2024/03/30 09:52:28;;;;;;;;;;;;;;;18.01;45.58;97677.13;10409928;28;877;-71
2024/03/30 09:57:24;;;;;;;;;;;;;;;18.04;45.58;97671.59;10409320;28;889;-71
2024/03/30 10:02:20;;;;;;;;;;;;;;;18.05;45.62;97677.72;10409194;28;991;-71
2024/03/30 10:07:16;;;;;;;;;;;;;;;18.05;45.62;97689.13;10408339;28;1905;-72
2024/03/30 10:12:12;;;;;;;;;;;;;;;18.07;45.79;97691.63;10408190;28;889;-71
2024/03/30 10:17:08;;;;;;;;;;;;;;;18.08;45.63;97691.50;10408612;28;845;-72
2024/03/30 10:22:03;;;;;;;;;;;;;;;18.09;45.74;97682.63;10407455;28;773;-71
2024/03/30 10:26:59;;;;;;;;;;;;;;;18.10;45.64;97691.38;10407678;28;1996;-72
2024/03/30 10:31:56;;;;;;;;;;;;;;;18.11;45.66;97688.63;10407761;28;1115;-71
2024/03/30 10:36:52;;;;;;;;;;;;;;;18.13;45.47;97696.41;10408349;28;865;-71
2024/03/30 10:41:48;;;;;;;;;;;;;;;18.14;45.45;97704.22;10408232;28;865;-71
2024/03/30 10:46:44;;;;;;;;;;;;;;;18.14;45.61;97688.38;10407278;28;1918;-71
2024/03/30 10:51:40;;;;;;;;;;;;;;;18.16;45.69;97701.47;10407227;28;979;-70
2024/03/30 10:56:35;;;;;;;;;;;;;;;18.17;45.39;97697.84;10407109;28;787;-71
2024/03/30 11:01:33;;;;;;;;;;;;;;;18.18;45.48;97712.72;10406998;28;838;-71
2024/03/30 11:06:29;;;;;;;;;;;;;;;18.17;45.36;97714.50;10407323;28;1906;-71
2024/03/30 11:11:25;;;;;;;;;;;;;;;18.15;45.35;97705.88;10413429;28;885;-71
2024/03/30 11:16:21;;;;;;;;;;;;;;;18.16;45.23;97707.56;10414705;28;893;-71
2024/03/30 11:21:16;;;;;;;;;;;;;;;18.18;45.22;97716.22;10415219;28;821;-72
2024/03/30 11:26:12;;;;;;;;;;;;;;;18.20;45.46;97726.63;10413132;28;1980;-70
2024/03/30 11:31:08;;;;;;;;;;;;;;;18.21;45.37;97732.72;10413657;28;919;-71
2024/03/30 11:36:04;;;;;;;;;;;;;;;18.19;45.30;97738.13;10414010;28;867;-71
2024/03/30 11:41:00;;;;;;;;;;;;;;;18.20;45.34;97738.97;10413823;28;885;-71
2024/03/30 11:45:57;;;;;;;;;;;;;;;18.18;45.24;97742.56;10413663;28;1959;-71
2024/03/30 11:50:52;;;;;;;;;;;;;;;18.18;45.33;97737.31;10414740;28;835;-71
2024/03/30 11:55:48;;;;;;;;;;;;;;;18.18;45.36;97734.66;10413452;28;846;-71
2024/03/30 12:00:44;;;;;;;;;;;;;;;18.19;45.40;97743.41;10412608;27;929;-71
2024/03/30 12:05:40;;;;;;;;;;;;;;;18.18;45.51;97734.66;10413414;28;1955;-71
2024/03/30 12:10:36;;;;;;;;;;;;;;;18.20;45.35;97744.25;10412115;28;1072;-71
2024/03/30 12:15:32;;;;;;;;;;;;;;;18.20;45.35;97744.25;10413066;28;795;-71
2024/03/30 12:20:28;;;;;;;;;;;;;;;18.19;45.22;97727.59;10412166;28;977;-71
2024/03/30 12:25:25;;;;;;;;;;;;;;;18.18;45.31;97737.31;10412255;28;1909;-71
2024/03/30 12:30:21;;;;;;;;;;;;;;;18.18;45.44;97732.03;10412660;28;886;-70
2024/03/30 12:35:17;;;;;;;;;;;;;;;18.20;45.29;97739.81;10411728;27;890;-70
2024/03/30 12:40:13;;;;;;;;;;;;;;;18.20;45.15;97738.97;10410995;28;1031;-71
2024/03/30 12:45:08;;;;;;;;;;;;;;;18.21;45.23;97743.28;10411242;27;1953;-71
2024/03/30 12:50:04;;;;;;;;;;;;;;;18.20;45.19;97738.97;10411753;28;841;-70
2024/03/30 12:55:00;;;;;;;;;;;;;;;18.20;45.20;97723.97;10411158;28;1093;-70
2024/03/30 12:59:56;;;;;;;;;;;;;;;18.20;45.27;97729.25;10410743;28;818;-71
2024/03/30 13:04:52;;;;;;;;;;;;;;;18.22;45.40;97721.25;10410555;28;822;-71
2024/03/30 13:09:48;;;;;;;;;;;;;;;18.21;45.26;97716.91;10408990;28;1989;-70
2024/03/30 13:14:44;;;;;;;;;;;;;;;18.21;45.17;97709.00;10408901;28;825;-71
2024/03/30 13:19:40;;;;;;;;;;;;;;;18.23;45.22;97722.91;10409840;28;862;-71
2024/03/30 13:24:36;;;;;;;;;;;;;;;18.23;45.09;97730.81;10410203;28;1590;-71
2024/03/30 13:29:36;;;;;;;;;;;;;;;18.24;45.03;97711.41;10410066;27;1922;-70
2024/03/30 13:34:31;;;;;;;;;;;;;;;18.24;45.12;97719.34;10409176;28;967;-71
2024/03/30 13:39:27;;;;;;;;;;;;;;;18.24;45.32;97719.34;10410051;28;850;-71
2024/03/30 13:44:23;;;;;;;;;;;;;;;18.25;45.08;97710.44;10409616;28;838;-73
2024/03/30 13:49:19;;;;;;;;;;;;;;;18.26;45.13;97742.00;10408175;28;1898;-71
2024/03/30 13:54:18;;;;;;;;;;;;;;;18.26;45.02;97722.66;10408652;28;859;-71
2024/03/30 13:59:14;;;;;;;;;;;;;;;18.26;45.14;97727.94;10408377;28;936;-71
2024/03/30 14:04:09;;;;;;;;;;;;;;;18.26;45.03;97720.91;10408955;28;872;-71
2024/03/30 14:09:08;;;;;;;;;;;;;;;18.27;45.17;97716.44;10407502;28;1894;-71
2024/03/30 14:14:03;;;;;;;;;;;;;;;18.28;45.17;97732.13;10407969;28;881;-71
2024/03/30 14:18:59;;;;;;;;;;;;;;;18.28;45.21;97721.59;10407431;28;988;-70
2024/03/30 14:23:55;;;;;;;;;;;;;;;18.28;45.18;97723.41;10407907;28;949;-70
2024/03/30 14:28:51;;;;;;;;;;;;;;;18.28;44.98;97732.13;10408000;28;1906;-70
2024/03/30 14:33:47;;;;;;;;;;;;;;;18.28;45.19;97755.88;10407544;28;960;-71
2024/03/30 14:38:43;;;;;;;;;;;;;;;18.29;45.10;97762.84;10407408;28;867;-70
2024/03/30 14:43:39;;;;;;;;;;;;;;;18.30;45.22;97776.88;10408153;28;877;-70
2024/03/30 14:48:35;;;;;;;;;;;;;;;18.30;45.03;97788.25;10415401;28;1968;-71
2024/03/30 14:53:30;;;;;;;;;;;;;;;18.31;44.94;97794.38;10416015;28;865;-70
2024/03/30 14:58:26;;;;;;;;;;;;;;;18.31;45.01;97807.56;10415615;27;770;-70
2024/03/30 15:03:34;;;;;;;;;;;;;;;18.31;44.96;97816.31;10414828;28;977;-71
2024/03/30 15:08:29;;;;;;;;;;;;;;;18.31;45.03;97823.38;10415602;28;1945;-72
2024/03/30 15:13:25;;;;;;;;;;;;;;;18.30;45.36;97819.06;10415186;28;862;-70
2024/03/30 15:18:21;;;;;;;;;;;;;;;18.31;45.10;97833.91;10415855;28;768;-69
2024/03/30 15:23:17;;;;;;;;;;;;;;;18.31;45.06;97832.16;10414757;28;850;-70
2024/03/30 15:28:13;;;;;;;;;;;;;;;18.32;44.93;97833.81;10415477;28;1909;-69
2024/03/30 15:33:09;;;;;;;;;;;;;;;18.32;45.08;97828.53;10414726;28;833;-70
2024/03/30 15:38:05;;;;;;;;;;;;;;;18.32;45.12;97838.25;10414065;28;861;-69
2024/03/30 15:43:01;;;;;;;;;;;;;;;18.32;45.15;97833.81;10413944;28;1077;-70
2024/03/30 15:47:56;;;;;;;;;;;;;;;18.33;45.11;97832.00;10413606;28;1956;-69
2024/03/30 15:52:52;;;;;;;;;;;;;;;18.34;44.99;97846.91;10413494;27;825;-69
2024/03/30 15:57:48;;;;;;;;;;;;;;;18.32;45.08;97846.16;10412259;28;887;-71
2024/03/30 16:02:44;;;;;;;;;;;;;;;18.32;45.16;97854.91;10413314;28;830;-70
2024/03/30 16:07:40;;;;;;;;;;;;;;;18.34;45.13;97854.81;10413700;28;1951;-77
2024/03/30 16:12:36;;;;;;;;;;;;;;;18.35;45.26;97865.22;10413582;28;1003;-78
2024/03/30 16:17:32;;;;;;;;;;;;;;;18.36;45.31;97869.53;10412956;28;937;-83
2024/03/30 16:22:27;;;;;;;;;;;;;;;18.36;45.12;97884.53;10412657;28;810;-73
2024/03/30 16:27:23;;;;;;;;;;;;;;;18.37;45.19;97896.78;10412783;28;1913;-76
2024/03/30 16:32:19;;;;;;;;;;;;;;;18.39;45.22;97900.97;10412824;27;853;-75
2024/03/30 16:37:15;;;;;;;;;;;;;;;18.40;45.28;97920.28;10412623;28;849;-73
2024/03/30 16:42:11;;;;;;;;;;;;;;;18.39;45.19;97927.38;10411813;28;857;-78
2024/03/30 16:47:07;;;;;;;;;;;;;;;18.40;45.26;97944.03;10412179;28;1894;-70
2024/03/30 16:52:03;;;;;;;;;;;;;;;18.41;45.28;97953.59;10412057;28;882;-70
2024/03/30 16:56:58;;;;;;;;;;;;;;;18.42;45.48;97970.28;10411022;28;954;-71
2024/03/30 17:01:54;;;;;;;;;;;;;;;18.43;45.47;97977.25;10410352;28;826;-71
2024/03/30 17:06:50;;;;;;;;;;;;;;;18.42;45.44;97971.13;10411097;28;1948;-72
2024/03/30 17:11:46;;;;;;;;;;;;;;;18.42;45.41;97963.22;10410084;28;1003;-72
2024/03/30 17:16:42;;;;;;;;;;;;;;;18.41;45.41;97964.16;10409849;28;913;-72
2024/03/30 17:21:38;;;;;;;;;;;;;;;18.41;45.52;97974.72;10410265;28;805;-69
2024/03/30 17:26:34;;;;;;;;;;;;;;;18.40;45.55;97989.72;10410534;28;1973;-69
2024/03/30 17:31:30;;;;;;;;;;;;;;;18.39;45.58;98009.13;10410205;28;794;-68
2024/03/30 17:36:26;;;;;;;;;;;;;;;18.38;45.38;98009.25;10409743;28;803;-69
2024/03/30 17:41:22;;;;;;;;;;;;;;;18.39;45.71;98024.09;10409504;28;956;-72
2024/03/30 17:46:20;;;;;;;;;;;;;;;18.39;45.65;98018.81;10409236;28;1886;-73
2024/03/30 17:51:15;;;;;;;;;;;;;;;18.40;45.48;98031.06;10408840;28;791;-70
2024/03/30 17:56:11;;;;;;;;;;;;;;;18.39;45.58;98014.41;10407904;28;717;-70
2024/03/30 18:01:07;;;;;;;;;;;;;;;18.40;45.51;98023.16;10408467;28;935;-71
2024/03/30 18:06:03;;;;;;;;;;;;;;;18.40;45.77;98031.06;10408249;28;1893;-70
2024/03/30 18:10:59;;;;;;;;;;;;;;;18.40;45.57;98053.00;10408890;28;939;-70
2024/03/30 18:15:55;;;;;;;;;;;;;;;18.42;45.47;98057.31;10408644;28;882;-70
2024/03/30 18:20:51;;;;;;;;;;;;;;;18.42;45.47;98071.38;10407290;28;794;-70
2024/03/30 18:25:47;;;;;;;;;;;;;;;18.43;45.42;98066.94;10407326;28;1906;-70
2024/03/30 18:30:42;;;;;;;;;;;;;;;18.44;45.49;98063.34;10407064;28;880;-70
2024/03/30 18:35:39;;;;;;;;;;;;;;;18.44;45.50;98058.06;10407692;28;980;-70
2024/03/30 18:40:36;;;;;;;;;;;;;;;18.45;45.60;98050.06;10408590;28;896;-70
2024/03/30 18:45:32;;;;;;;;;;;;;;;18.45;45.40;98062.41;10407938;28;1972;-70
2024/03/30 18:50:27;;;;;;;;;;;;;;;18.46;45.53;98057.00;10407992;28;818;-70
2024/03/30 18:55:23;;;;;;;;;;;;;;;18.47;45.58;98052.56;10407169;28;905;-70
2024/03/30 19:00:22;;;;;;;;;;;;;;;18.47;45.47;98066.63;10408282;28;933;-70
2024/03/30 19:05:19;;;;;;;;;;;;;;;18.49;45.55;98071.75;10406363;28;904;-71
2024/03/30 19:10:15;;;;;;;;;;;;;;;18.48;45.61;98070.94;10407390;28;1075;-70
2024/03/30 19:15:11;;;;;;;;;;;;;;;18.50;45.33;98062.91;10407382;28;850;-70
2024/03/30 19:20:07;;;;;;;;;;;;;;;18.49;45.48;98051.50;10406710;28;967;-70
2024/03/30 19:25:03;;;;;;;;;;;;;;;18.50;45.52;98047.91;10406895;28;1461;-70
2024/03/30 19:29:59;;;;;;;;;;;;;;;18.51;45.48;98040.84;10407805;28;1914;-70
2024/03/30 19:34:54;;;;;;;;;;;;;;;18.51;45.42;98057.50;10414877;28;882;-70
2024/03/30 19:39:50;;;;;;;;;;;;;;;18.53;45.58;98052.13;10414012;28;778;-70
2024/03/30 19:44:46;;;;;;;;;;;;;;;18.53;45.50;98044.22;10414463;28;927;-70
2024/03/30 19:49:43;;;;;;;;;;;;;;;18.54;45.36;98053.81;10413576;28;1894;-70
2024/03/30 19:54:39;;;;;;;;;;;;;;;18.56;45.46;98047.47;10414094;28;791;-70
2024/03/30 19:59:35;;;;;;;;;;;;;;;18.56;45.59;98020.25;10413268;28;834;-70
2024/03/30 20:04:31;;;;;;;;;;;;;;;18.56;45.41;98026.34;10413321;28;866;-70
2024/03/30 20:09:27;;;;;;;;;;;;;;;18.58;45.42;98029.72;10413538;28;1962;-70
2024/03/30 20:14:23;;;;;;;;;;;;;;;18.57;45.49;98028.03;10413356;28;794;-70
2024/03/30 20:19:19;;;;;;;;;;;;;;;18.58;45.37;98040.28;10412547;28;912;-70
2024/03/30 20:24:15;;;;;;;;;;;;;;;18.59;45.41;98055.16;10412788;28;1026;-69
2024/03/30 20:29:10;;;;;;;;;;;;;;;18.59;45.48;98063.06;10412291;28;1905;-70
2024/03/30 20:34:06;;;;;;;;;;;;;;;18.59;45.40;98078.91;10411982;28;787;-70
2024/03/30 20:39:03;;;;;;;;;;;;;;;18.59;45.32;98078.06;10412528;28;838;-70
2024/03/30 20:43:58;;;;;;;;;;;;;;;18.59;45.25;98078.91;10411021;27;799;-70
2024/03/30 20:48:54;;;;;;;;;;;;;;;18.60;45.43;98074.44;10412154;27;1947;-70
2024/03/30 20:53:50;;;;;;;;;;;;;;;18.60;45.40;98092.91;10411259;28;887;-70
2024/03/30 20:58:46;;;;;;;;;;;;;;;18.58;45.50;98082.50;10411459;28;891;-70
2024/03/30 21:03:42;;;;;;;;;;;;;;;18.59;45.38;98081.53;10410764;28;1007;-70
2024/03/30 21:08:38;;;;;;;;;;;;;;;18.59;45.37;98083.34;10410790;28;1956;-70
2024/03/30 21:13:34;;;;;;;;;;;;;;;18.58;45.46;98089.56;10410906;28;1697;-70
2024/03/30 21:18:30;;;;;;;;;;;;;;;18.57;45.40;98088.72;10410348;28;918;-70
2024/03/30 21:23:26;;;;;;;;;;;;;;;18.56;45.42;98087.03;10409921;28;1240;-70
2024/03/30 21:28:21;;;;;;;;;;;;;;;18.56;45.52;98092.31;10408964;28;1989;-70
2024/03/30 21:33:17;;;;;;;;;;;;;;;18.55;45.39;98095.91;10409881;28;929;-70
2024/03/30 21:38:13;;;;;;;;;;;;;;;18.56;45.38;98097.59;10409987;28;863;-70
2024/03/30 21:43:09;;;;;;;;;;;;;;;18.56;45.29;98097.59;10409473;28;788;-70
2024/03/30 21:48:05;;;;;;;;;;;;;;;18.56;45.41;98092.31;10409219;28;1955;-70
2024/03/30 21:53:01;;;;;;;;;;;;;;;18.55;45.37;98088.00;10409000;28;838;-70
2024/03/30 21:57:58;;;;;;;;;;;;;;;18.53;45.34;98066.16;10408787;28;971;-70
2024/03/30 22:02:53;;;;;;;;;;;;;;;18.53;45.16;98063.53;10409565;28;937;-70
2024/03/30 22:07:49;;;;;;;;;;;;;;;18.51;45.22;98073.34;10409217;28;1951;-70
2024/03/30 22:12:45;;;;;;;;;;;;;;;18.51;45.19;98075.97;10409269;28;818;-70
2024/03/30 22:17:41;;;;;;;;;;;;;;;18.49;45.40;98080.50;10408267;28;953;-70
2024/03/30 22:22:37;;;;;;;;;;;;;;;18.48;45.24;98076.19;10408790;28;814;-70
2024/03/30 22:27:33;;;;;;;;;;;;;;;18.48;45.32;98084.13;10407975;28;1909;-70
2024/03/30 22:32:29;;;;;;;;;;;;;;;18.46;45.21;98090.47;10407961;28;994;-70
2024/03/30 22:37:24;;;;;;;;;;;;;;;18.44;45.35;98095.00;10407800;28;1193;-70
2024/03/30 22:42:20;;;;;;;;;;;;;;;18.43;45.37;98082.78;10407720;28;775;-70
2024/03/30 22:47:16;;;;;;;;;;;;;;;18.41;45.28;98082.88;10407566;28;1898;-70
2024/03/30 22:52:12;;;;;;;;;;;;;;;18.39;45.33;98093.56;10408155;28;810;-70
2024/03/30 22:57:08;;;;;;;;;;;;;;;18.38;45.34;98106.84;10407353;28;862;-70
2024/03/30 23:02:04;;;;;;;;;;;;;;;18.37;45.27;98105.16;10406650;28;826;-70
2024/03/30 23:07:00;;;;;;;;;;;;;;;18.34;45.26;98105.38;10412082;28;1894;-70
2024/03/30 23:11:56;;;;;;;;;;;;;;;18.33;45.23;98101.88;10414867;27;934;-70
2024/03/30 23:16:51;;;;;;;;;;;;;;;18.30;45.30;98104.75;10416016;28;861;-70
2024/03/30 23:21:47;;;;;;;;;;;;;;;18.30;45.11;98114.47;10415708;28;896;-70
2024/03/30 23:26:43;;;;;;;;;;;;;;;18.28;45.29;98113.72;10415507;28;1909;-70
2024/03/30 23:31:39;;;;;;;;;;;;;;;18.26;45.33;98105.06;10415390;28;897;-70
2024/03/30 23:36:35;;;;;;;;;;;;;;;18.24;45.01;98091.16;10415238;28;865;-70
2024/03/30 23:41:31;;;;;;;;;;;;;;;18.23;45.48;98095.56;10415546;28;798;-70
2024/03/30 23:46:27;;;;;;;;;;;;;;;18.22;45.41;98100.97;10413979;28;1963;-70
2024/03/30 23:51:23;;;;;;;;;;;;;;;18.20;45.48;98100.25;10413941;28;1032;-70
2024/03/30 23:56:19;;;;;;;;;;;;;;;18.18;45.41;98106.47;10413777;28;809;-70
